Armstrong, Alabama
Current Conditions -  °F | °C
As of 4:55 PM on Wednesday 22 Oct 2014 (Local Time) from KAUO Reporting Station
Clear Clear  
Wind Chill: 19°   Ceiling: Unl
Heat Index: 19°   Visibility: 10mi
Dew Point:   Wind: 8mph
Humidity: 37%   Direction: 10°N
Pressure: 30.09"   Gusts: NA
Location:  32.2227°N, 85.6394°W
Report Text: KAUO 222155Z AUTO 01007KT 10SM CLR 19/04 A3009 RMK AO1
Loading
Personal Weather Stations






























Interactive Weather Map
Tropical Storm Tracking
New forecast layout! Learn more

10-Day Weather Forecast

Advertisements
Track Severe Weather on mobile